createdAt,value
2019-05-06T00:01:44.805Z,8.06
2019-05-06T00:05:51.605Z,8.04
2019-05-06T00:09:58.573Z,7.98
2019-05-06T00:14:06.499Z,7.98
2019-05-06T00:18:13.900Z,7.98
2019-05-06T00:22:20.857Z,7.98
2019-05-06T00:26:45.436Z,7.98
2019-05-06T00:31:02.834Z,7.92
2019-05-06T00:35:04.551Z,7.96
2019-05-06T00:39:33.693Z,7.97
2019-05-06T00:43:40.486Z,7.94
2019-05-06T00:47:47.216Z,7.89
2019-05-06T00:52:01.500Z,7.91
2019-05-06T00:56:08.195Z,7.93
2019-05-06T01:00:30.293Z,7.92
2019-05-06T01:04:37.102Z,7.93
2019-05-06T01:08:44.136Z,7.98
2019-05-06T01:13:05.819Z,7.85
2019-05-06T01:17:13.433Z,7.87
2019-05-06T01:21:20.320Z,7.82
2019-05-06T01:25:27.132Z,7.81
2019-05-06T01:29:34.828Z,7.82
2019-05-06T01:33:42.705Z,7.85
2019-05-06T01:37:54.581Z,7.80
2019-05-06T01:42:34.464Z,7.82
2019-05-06T01:46:41.066Z,7.78
2019-05-06T01:50:47.773Z,7.76
2019-05-06T01:54:54.453Z,7.72
2019-05-06T01:59:01.204Z,7.63
2019-05-06T02:03:07.918Z,7.62
2019-05-06T02:07:14.752Z,7.51
2019-05-06T02:11:21.500Z,7.51
2019-05-06T02:15:28.586Z,7.44
2019-05-06T02:19:36.078Z,7.32
2019-05-06T02:23:46.344Z,7.28
2019-05-06T02:27:54.174Z,7.26
2019-05-06T02:32:25.920Z,7.16
2019-05-06T02:37:05.967Z,7.04
2019-05-06T02:41:13.348Z,6.99
2019-05-06T02:45:19.389Z,6.85
2019-05-06T02:49:48.647Z,6.76
2019-05-06T02:53:55.369Z,6.71
2019-05-06T02:58:02.844Z,6.66
2019-05-06T03:02:13.686Z,6.59
2019-05-06T03:06:20.216Z,6.46
2019-05-06T03:10:27.790Z,6.39
2019-05-06T03:14:35.958Z,6.28
2019-05-06T03:18:43.449Z,6.19
2019-05-06T03:23:03.922Z,6.21
2019-05-06T03:27:14.111Z,6.11
2019-05-06T03:31:26.085Z,6.07
2019-05-06T03:35:44.124Z,5.99
2019-05-06T03:39:39.536Z,6.00
2019-05-06T03:43:46.783Z,5.93
2019-05-06T03:47:59.910Z,5.88
2019-05-06T03:52:06.899Z,5.87
2019-05-06T03:56:19.275Z,5.83
2019-05-06T04:00:23.815Z,5.75
2019-05-06T04:04:33.406Z,5.61
2019-05-06T04:08:43.459Z,5.58
2019-05-06T04:12:53.510Z,5.52
2019-05-06T04:17:13.644Z,5.56
2019-05-06T04:21:26.924Z,5.60
2019-05-06T04:25:52.717Z,5.53
2019-05-06T04:30:04.632Z,5.51
2019-05-06T04:34:19.458Z,5.58
2019-05-06T04:38:24.013Z,5.52
2019-05-06T04:42:34.519Z,5.54
2019-05-06T04:46:48.883Z,5.58
2019-05-06T04:50:56.928Z,5.56
2019-05-06T04:55:04.456Z,5.65
2019-05-06T04:59:13.884Z,5.70
2019-05-06T05:03:23.096Z,5.79
2019-05-06T05:07:30.026Z,5.86
2019-05-06T05:11:48.977Z,5.81
2019-05-06T05:16:14.627Z,5.99
2019-05-06T05:20:36.482Z,6.00
2019-05-06T05:24:33.336Z,6.04
2019-05-06T05:28:42.795Z,6.49
2019-05-06T05:32:49.096Z,6.29
2019-05-06T05:36:56.026Z,6.34
2019-05-06T05:41:03.179Z,6.50
2019-05-06T05:45:12.856Z,6.55
2019-05-06T05:49:28.574Z,6.72
2019-05-06T05:53:35.544Z,6.75
2019-05-06T05:57:43.211Z,6.95
2019-05-06T06:01:52.925Z,7.04
2019-05-06T06:05:59.421Z,7.15
2019-05-06T06:10:18.579Z,7.24
2019-05-06T06:14:56.081Z,7.55
2019-05-06T06:19:23.026Z,7.73
2019-05-06T06:23:34.007Z,7.80
2019-05-06T06:27:51.904Z,8.00
2019-05-06T06:32:20.095Z,8.13
2019-05-06T06:36:37.810Z,8.22
2019-05-06T06:40:44.861Z,8.32
2019-05-06T06:44:52.156Z,8.47
2019-05-06T06:49:00.015Z,8.51
2019-05-06T06:53:07.043Z,8.74
2019-05-06T06:57:31.446Z,8.83
2019-05-06T07:01:44.490Z,8.89
2019-05-06T07:06:04.906Z,9.07
2019-05-06T07:10:32.390Z,9.18
2019-05-06T07:14:39.338Z,9.21
2019-05-06T07:18:46.139Z,9.19
2019-05-06T07:22:54.264Z,9.35
2019-05-06T07:27:12.543Z,9.40
2019-05-06T07:31:23.729Z,9.82
2019-05-06T07:35:38.465Z,9.78
2019-05-06T07:39:42.815Z,9.96
2019-05-06T07:44:03.783Z,9.57
2019-05-06T07:48:15.011Z,9.49
2019-05-06T07:52:23.049Z,9.73
2019-05-06T07:56:32.083Z,9.76
2019-05-06T08:00:39.145Z,10.11
2019-05-06T08:04:46.251Z,10.62
2019-05-06T08:08:53.823Z,10.93
2019-05-06T08:13:02.717Z,10.68
2019-05-06T08:17:19.349Z,10.58
2019-05-06T08:21:28.051Z,10.50
2019-05-06T08:25:42.506Z,10.35
2019-05-06T08:29:49.478Z,10.50
2019-05-06T08:33:56.485Z,10.32
2019-05-06T08:38:03.664Z,10.29
2019-05-06T08:42:10.453Z,10.32
2019-05-06T08:46:17.364Z,10.91
2019-05-06T08:50:34.817Z,11.09
2019-05-06T08:54:46.442Z,11.00
2019-05-06T08:58:53.704Z,11.89
2019-05-06T09:03:00.692Z,11.87
2019-05-06T09:07:07.716Z,11.60
2019-05-06T09:11:14.482Z,11.27
2019-05-06T09:15:21.988Z,11.00
2019-05-06T09:19:29.294Z,11.83
2019-05-06T09:23:36.202Z,12.72
2019-05-06T09:28:13.073Z,12.40
2019-05-06T09:32:28.291Z,12.75
2019-05-06T09:36:43.802Z,12.23
2019-05-06T09:40:43.433Z,11.89
2019-05-06T09:44:53.946Z,11.49
2019-05-06T09:49:12.664Z,11.58
2019-05-06T09:53:43.225Z,11.58
2019-05-06T09:58:05.123Z,11.25
2019-05-06T10:02:12.641Z,11.48
2019-05-06T10:06:22.164Z,11.32
2019-05-06T10:10:28.282Z,12.75
2019-05-06T10:14:35.077Z,13.22
2019-05-06T10:18:41.939Z,14.10
2019-05-06T10:22:49.112Z,13.81
2019-05-06T10:26:59.556Z,14.52
2019-05-06T10:31:08.937Z,14.14
2019-05-06T10:35:16.356Z,13.70
2019-05-06T10:39:27.711Z,14.00
2019-05-06T10:44:02.981Z,14.66
2019-05-06T10:48:10.038Z,15.06
2019-05-06T10:52:33.302Z,13.93
2019-05-06T10:57:08.311Z,13.86
2019-05-06T11:01:23.151Z,14.68
2019-05-06T11:05:32.403Z,15.95
2019-05-06T11:09:38.840Z,16.07
2019-05-06T11:13:45.667Z,14.21
2019-05-06T11:17:52.455Z,14.11
2019-05-06T11:21:59.429Z,13.85
2019-05-06T11:26:06.318Z,13.43
2019-05-06T11:30:24.812Z,12.95
2019-05-06T11:34:56.083Z,13.00
2019-05-06T11:39:03.926Z,12.77
2019-05-06T11:43:12.161Z,12.79
2019-05-06T11:47:19.160Z,13.37
2019-05-06T11:51:27.749Z,14.07
2019-05-06T11:55:38.884Z,14.79
2019-05-06T11:59:43.956Z,14.28
2019-05-06T12:03:52.189Z,13.38
2019-05-06T12:08:04.617Z,13.26
2019-05-06T12:12:08.785Z,12.97
2019-05-06T12:16:18.007Z,13.07
2019-05-06T12:20:33.021Z,13.26
2019-05-06T12:24:39.441Z,13.57
2019-05-06T12:28:46.460Z,14.00
2019-05-06T12:33:33.173Z,13.17
2019-05-06T12:37:44.125Z,15.51
2019-05-06T12:42:16.208Z,14.66
2019-05-06T12:46:43.025Z,14.12
2019-05-06T12:50:52.334Z,13.87
2019-05-06T12:55:17.479Z,13.58
2019-05-06T12:59:09.266Z,13.54
2019-05-06T13:03:16.028Z,13.90
2019-05-06T13:07:29.211Z,13.88
2019-05-06T13:11:37.491Z,13.09
2019-05-06T13:15:46.058Z,13.21
2019-05-06T13:19:52.988Z,12.73
2019-05-06T13:24:05.724Z,12.79
2019-05-06T13:28:14.708Z,13.10
2019-05-06T13:32:25.103Z,12.95
2019-05-06T13:36:33.365Z,13.56
2019-05-06T13:40:54.113Z,13.64
2019-05-06T13:44:49.220Z,13.46
2019-05-06T13:49:13.917Z,14.11
2019-05-06T13:53:27.388Z,13.66
2019-05-06T13:57:32.119Z,13.75
2019-05-06T14:02:06.890Z,13.58
2019-05-06T14:06:13.123Z,13.46
2019-05-06T14:10:25.262Z,13.39
2019-05-06T14:14:32.346Z,13.07
2019-05-06T14:18:39.138Z,13.34
2019-05-06T14:22:46.071Z,13.03
2019-05-06T14:27:02.552Z,13.00
2019-05-06T14:31:25.716Z,13.33
2019-05-06T14:35:33.376Z,12.75
2019-05-06T14:39:53.685Z,13.07
2019-05-06T14:43:55.348Z,12.73
2019-05-06T14:48:02.265Z,13.04
2019-05-06T14:52:13.163Z,12.91
2019-05-06T14:56:26.327Z,12.59
2019-05-06T15:00:33.219Z,12.54
2019-05-06T15:04:43.437Z,12.39
2019-05-06T15:08:51.106Z,12.63
2019-05-06T15:12:58.027Z,12.73
2019-05-06T15:17:04.923Z,12.76
2019-05-06T15:21:30.194Z,12.86
2019-05-06T15:25:22.180Z,12.91
2019-05-06T15:29:30.512Z,12.86
2019-05-06T15:33:40.829Z,12.78
2019-05-06T15:37:53.423Z,12.80
2019-05-06T15:42:01.377Z,12.41
2019-05-06T15:46:08.517Z,12.55
2019-05-06T15:50:16.518Z,12.55
2019-05-06T15:54:23.615Z,12.70
2019-05-06T15:58:32.484Z,12.51
2019-05-06T16:02:41.967Z,12.42
2019-05-06T16:06:48.901Z,12.24
2019-05-06T16:10:58.806Z,12.28
2019-05-06T16:15:07.502Z,12.32
2019-05-06T16:19:14.422Z,12.25
2019-05-06T16:23:28.141Z,12.37
2019-05-06T16:27:34.954Z,12.21
2019-05-06T16:31:45.075Z,12.34
2019-05-06T16:35:54.974Z,12.35
2019-05-06T16:40:06.550Z,12.34
2019-05-06T16:44:13.602Z,12.38
2019-05-06T16:48:22.579Z,12.23
2019-05-06T16:52:34.495Z,12.28
2019-05-06T16:56:46.958Z,12.02
2019-05-06T17:00:53.892Z,12.17
2019-05-06T17:05:19.469Z,11.96
2019-05-06T17:09:27.862Z,12.01
2019-05-06T17:13:37.697Z,11.75
2019-05-06T17:17:46.901Z,11.79
2019-05-06T17:21:52.535Z,11.63
2019-05-06T17:25:59.707Z,11.56
2019-05-06T17:30:33.122Z,11.62
2019-05-06T17:34:42.638Z,11.70
2019-05-06T17:38:52.572Z,11.55
2019-05-06T17:42:59.495Z,11.33
2019-05-06T17:47:16.142Z,11.40
2019-05-06T17:51:37.621Z,11.40
2019-05-06T17:55:44.766Z,11.22
2019-05-06T17:59:52.794Z,11.19
2019-05-06T18:04:02.098Z,11.23
2019-05-06T18:08:08.657Z,11.15
2019-05-06T18:12:16.593Z,11.11
2019-05-06T18:16:23.537Z,11.01
2019-05-06T18:20:30.281Z,10.96
2019-05-06T18:24:37.291Z,10.97
2019-05-06T18:28:44.396Z,10.81
2019-05-06T18:32:52.053Z,10.87
2019-05-06T18:37:02.944Z,10.72
2019-05-06T18:41:11.867Z,10.75
2019-05-06T18:45:38.908Z,10.76
2019-05-06T18:49:52.137Z,10.69
2019-05-06T18:53:59.745Z,10.62
2019-05-06T18:58:08.034Z,10.72
2019-05-06T19:02:14.850Z,10.61
2019-05-06T19:06:23.202Z,10.60
2019-05-06T19:10:34.155Z,10.55
2019-05-06T19:14:43.269Z,10.57
2019-05-06T19:18:55.631Z,10.47
2019-05-06T19:23:03.012Z,10.46
2019-05-06T19:27:17.071Z,10.50
2019-05-06T19:31:27.809Z,10.42
2019-05-06T19:35:37.097Z,10.27
2019-05-06T19:39:53.022Z,10.20
2019-05-06T19:44:02.188Z,10.19
2019-05-06T19:48:09.230Z,10.18
2019-05-06T19:52:18.400Z,10.16
2019-05-06T19:56:25.283Z,10.16
2019-05-06T20:00:32.639Z,10.24
2019-05-06T20:04:44.064Z,10.26
2019-05-06T20:08:55.431Z,10.17
2019-05-06T20:13:05.597Z,10.24
2019-05-06T20:17:13.604Z,10.23
2019-05-06T20:21:20.540Z,10.37
2019-05-06T20:25:27.491Z,10.33
2019-05-06T20:29:36.789Z,10.43
2019-05-06T20:33:47.183Z,10.37
2019-05-06T20:37:54.323Z,10.40
2019-05-06T20:42:03.682Z,10.29
2019-05-06T20:46:12.416Z,10.19
2019-05-06T20:50:22.378Z,10.26
2019-05-06T20:54:29.404Z,10.27
2019-05-06T20:58:36.334Z,10.35
2019-05-06T21:02:45.101Z,10.15
2019-05-06T21:06:52.914Z,10.21
2019-05-06T21:11:00.007Z,10.14
2019-05-06T21:15:08.410Z,10.14
2019-05-06T21:19:15.819Z,10.15
2019-05-06T21:23:22.883Z,10.04
2019-05-06T21:27:29.893Z,10.08
2019-05-06T21:31:38.256Z,10.05
2019-05-06T21:35:45.080Z,9.88
2019-05-06T21:39:53.000Z,9.91
2019-05-06T21:44:02.287Z,9.97
2019-05-06T21:48:08.843Z,9.98
2019-05-06T21:52:15.702Z,9.95
2019-05-06T21:56:22.720Z,9.98
2019-05-06T22:00:48.667Z,10.04
2019-05-06T22:04:55.804Z,10.00
2019-05-06T22:09:02.832Z,9.98
2019-05-06T22:13:12.592Z,9.90
2019-05-06T22:17:19.728Z,9.88
2019-05-06T22:21:26.522Z,9.85
2019-05-06T22:25:33.284Z,9.76
2019-05-06T22:29:42.506Z,9.80
2019-05-06T22:33:48.603Z,9.77
2019-05-06T22:37:57.121Z,9.68
2019-05-06T22:42:03.915Z,9.68
2019-05-06T22:46:12.299Z,9.60
2019-05-06T22:50:19.321Z,9.57
2019-05-06T22:54:26.158Z,9.53
2019-05-06T22:58:34.626Z,9.47
2019-05-06T23:02:52.723Z,9.50
2019-05-06T23:06:59.423Z,9.45
2019-05-06T23:11:06.448Z,9.49
2019-05-06T23:15:13.424Z,9.33
2019-05-06T23:19:21.955Z,9.36
2019-05-06T23:23:28.667Z,9.42
2019-05-06T23:27:35.447Z,9.31
2019-05-06T23:31:42.628Z,9.36
2019-05-06T23:35:51.498Z,9.37
2019-05-06T23:40:52.179Z,9.30
2019-05-06T23:45:54.389Z,9.27
2019-05-06T23:50:55.277Z,9.31
2019-05-06T23:55:56.044Z,9.27
